This is the latest recevied weather packets stored in our database for station/object KA7BMX. If no packets are shown the sender has not sent any weather packets the latest 1 day(s).
| Time | Temp. | Humidity | Pressure | Rain* | Wind** | Luminosity | Snow |
|---|---|---|---|---|---|---|---|
| 1778044761 | 15° C | 41% | - | - | 0 m/s | - | - |
| 1778042961 | 15° C | 41% | - | - | 0 m/s | - | - |
| 1778041161 | 15.56° C | 40% | - | - | 0 m/s | - | - |
| 1778037562 | 17.78° C | 37% | - | - | 0 m/s | - | - |
| 1778033962 | 21.67° C | 29% | - | - | 0 m/s | - | - |
| 1778032161 | 21.67° C | 29% | - | - | 0.45 m/s, 999° | - | - |
| 1778030361 | 22.22° C | 28% | - | - | 0 m/s | - | - |
| 1778028561 | 23.33° C | 26% | - | - | 0.89 m/s, 999° | - | - |
| 1778026761 | 23.33° C | 26% | - | - | 0.89 m/s, 999° | - | - |
| 1778023162 | 22.78° C | 27% | - | - | 1.34 m/s, 999° | - | - |
| 1778021361 | 22.78° C | 26% | - | - | 0.45 m/s, 999° | - | - |
| 1778019561 | 22.78° C | 28% | - | - | 0.45 m/s, 999° | - | - |
| 1778017761 | 23.89° C | 26% | - | - | 0.45 m/s, 999° | - | - |
| 1778015961 | 23.33° C | 28% | - | - | 0.89 m/s, 999° | - | - |
| 1778014161 | 23.33° C | 28% | - | - | 0.89 m/s, 999° | - | - |
| 1778012361 | 22.22° C | 28% | - | - | 1.34 m/s, 999° | - | - |
| 1778010561 | 21.67° C | 29% | - | - | 2.68 m/s, 999° | - | - |
| 1778008761 | 21.67° C | 29% | - | - | 1.34 m/s, 999° | - | - |
| 1778003361 | 20° C | 32% | - | - | 1.34 m/s, 999° | - | - |
| 1778001562 | 19.44° C | 34% | - | - | 1.34 m/s, 999° | - | - |
| 1777999761 | 18.89° C | 35% | - | - | 0.89 m/s, 999° | - | - |
| 1777997961 | 19.44° C | 36% | - | - | 0.89 m/s, 999° | - | - |
| 1777996161 | 17.78° C | 36% | - | - | 0.89 m/s, 999° | - | - |
| 1777994361 | 16.67° C | 38% | - | - | 1.34 m/s, 999° | - | - |
| 1777992561 | 16.67° C | 40% | - | - | 0.45 m/s, 999° | - | - |
* Rain since midnight (hover to see other rain measurements)
** Current wind speed in m/s (hover to see current wind gust speed)